createdAt,value
2023-05-10T00:10:12.733Z,9.32
2023-05-10T00:20:36.026Z,14.35
2023-05-10T00:30:59.806Z,8.48
2023-05-10T00:41:23.153Z,10.23
2023-05-10T00:51:45.908Z,8.55
2023-05-10T01:02:09.407Z,12.50
2023-05-10T01:12:31.684Z,8.25
2023-05-10T01:23:24.285Z,8.82
2023-05-10T01:33:53.451Z,16.30
2023-05-10T01:44:20.324Z,9.02
2023-05-10T01:54:57.976Z,9.27
2023-05-10T02:05:23.736Z,8.38
2023-05-10T02:15:50.165Z,9.13
2023-05-10T02:26:14.451Z,8.27
2023-05-10T02:36:40.707Z,8.90
2023-05-10T02:47:02.554Z,9.23
2023-05-10T02:57:29.565Z,9.43
2023-05-10T03:07:51.969Z,5.72
2023-05-10T03:18:19.604Z,6.65
2023-05-10T03:28:42.952Z,9.93
2023-05-10T03:39:06.303Z,8.50
2023-05-10T03:49:29.144Z,9.27
2023-05-10T03:59:52.929Z,9.23
2023-05-10T04:10:17.531Z,9.85
2023-05-10T04:20:40.992Z,7.20
2023-05-10T04:31:03.832Z,8.02
2023-05-10T04:41:27.210Z,6.30
2023-05-10T04:51:48.804Z,7.53
2023-05-10T05:02:11.714Z,12.20
2023-05-10T05:12:33.145Z,5.90
2023-05-10T05:22:56.023Z,5.55
2023-05-10T05:33:17.646Z,5.25
2023-05-10T05:43:40.974Z,5.25
2023-05-10T05:54:04.509Z,8.25
2023-05-10T06:04:27.964Z,4.15
2023-05-10T06:14:49.734Z,5.50
2023-05-10T06:25:12.770Z,4.60
2023-05-10T06:35:34.454Z,3.08
2023-05-10T06:45:57.548Z,4.45
2023-05-10T06:56:19.735Z,6.25
2023-05-10T07:06:42.963Z,4.20
2023-05-10T07:17:04.462Z,2.85
2023-05-10T07:27:27.936Z,5.82
2023-05-10T07:37:52.479Z,6.28
2023-05-10T07:48:15.549Z,6.67
2023-05-10T07:58:37.129Z,5.90
2023-05-10T08:08:59.926Z,5.75
2023-05-10T08:19:22.445Z,3.88
2023-05-10T08:29:50.203Z,3.90
2023-05-10T08:40:13.784Z,8.55
2023-05-10T08:50:38.386Z,3.20
2023-05-10T09:01:01.458Z,5.60
2023-05-10T09:11:25.915Z,6.93
2023-05-10T09:21:47.833Z,3.83
2023-05-10T09:32:11.199Z,7.35
2023-05-10T09:42:32.673Z,3.20
2023-05-10T09:52:59.288Z,5.20
2023-05-10T10:03:22.494Z,3.78
2023-05-10T10:13:46.620Z,3.53
2023-05-10T10:34:33.056Z,3.95
2023-05-10T10:45:14.556Z,3.47
2023-05-10T10:55:49.619Z,3.58
2023-05-10T11:06:11.367Z,4.10
2023-05-10T11:16:43.743Z,3.45
2023-05-10T11:27:08.946Z,5.18
2023-05-10T11:37:35.140Z,7.05
2023-05-10T11:47:58.349Z,3.72
2023-05-10T11:58:23.663Z,3.72
2023-05-10T12:08:47.790Z,3.63
2023-05-10T12:19:11.480Z,6.25
2023-05-10T12:29:33.725Z,3.80
2023-05-10T12:39:58.070Z,7.40
2023-05-10T12:50:19.632Z,4.18
2023-05-10T13:12:08.800Z,3.08
2023-05-10T13:22:40.278Z,3.67
2023-05-10T13:33:06.312Z,3.75
2023-05-10T13:43:32.371Z,2.83
2023-05-10T13:53:58.213Z,3.72
2023-05-10T14:04:21.373Z,5.97
2023-05-10T14:14:44.466Z,3.08
2023-05-10T14:25:09.993Z,2.03
2023-05-10T14:35:33.461Z,2.47
2023-05-10T14:45:55.291Z,4.00
2023-05-10T14:56:21.857Z,3.13
2023-05-10T15:06:43.572Z,3.40
2023-05-10T15:17:10.787Z,5.33
2023-05-10T15:27:32.677Z,3.35
2023-05-10T15:37:57.590Z,6.70
2023-05-10T15:48:19.325Z,7.13
2023-05-10T15:58:44.079Z,6.47
2023-05-10T16:09:08.575Z,3.90
2023-05-10T16:19:31.811Z,3.70
2023-05-10T16:29:53.631Z,6.13
2023-05-10T16:40:17.033Z,6.90
2023-05-10T16:50:38.676Z,6.47
2023-05-10T17:01:01.780Z,8.40
2023-05-10T17:11:23.288Z,6.95
2023-05-10T17:21:46.742Z,7.30
2023-05-10T17:32:09.410Z,6.57
2023-05-10T17:43:03.879Z,8.13
2023-05-10T17:53:53.950Z,8.52
2023-05-10T18:04:30.060Z,6.28
2023-05-10T18:15:42.747Z,6.53
2023-05-10T18:26:31.944Z,6.38
2023-05-10T18:37:37.258Z,8.65
2023-05-10T18:48:33.270Z,9.70
2023-05-10T18:59:21.973Z,7.70
2023-05-10T19:10:12.268Z,8.63
2023-05-10T19:21:12.478Z,7.43
2023-05-10T19:31:58.140Z,12.07
2023-05-10T19:42:57.494Z,7.82
2023-05-10T19:53:46.730Z,10.07
2023-05-10T20:04:29.358Z,10.00
2023-05-10T20:15:12.061Z,9.10
2023-05-10T20:25:53.096Z,13.07
2023-05-10T20:36:53.751Z,8.73
2023-05-10T20:47:25.499Z,13.15
2023-05-10T20:58:26.816Z,11.63
2023-05-10T21:09:04.816Z,12.80
2023-05-10T21:19:36.686Z,12.13
2023-05-10T21:41:33.914Z,10.32
2023-05-10T21:52:17.583Z,11.38
2023-05-10T22:02:59.333Z,11.38
2023-05-10T22:13:52.466Z,11.48
2023-05-10T22:24:16.044Z,11.17
2023-05-10T22:34:37.387Z,26.05
2023-05-10T22:45:00.896Z,13.73
2023-05-10T22:55:23.133Z,18.55
2023-05-10T23:05:46.266Z,15.65
2023-05-10T23:16:09.341Z,16.42
2023-05-10T23:26:32.155Z,15.00
2023-05-10T23:36:53.775Z,14.77
2023-05-10T23:47:17.031Z,13.80
2023-05-10T23:57:40.634Z,11.40
